Time;durP1;ratioP1;P1;durP2;ratioP2;P2;SDS_P1;SDS_P2;PMS_P1;PMS_P2;Temp;Humidity;BMP_temperature;BMP_pressure;BME280_temperature;BME280_humidity;BME280_pressure;Samples;Min_cycle;Max_cycle;Signal;HPM_P1;HPM_P2
2021/01/10 00:00:47;;;;;;;;;;;22.60;37.80;;;;;;1608408;72;618;-58
2021/01/10 00:02:51;;;;;;;;;;;22.60;37.80;;;;;;1620116;73;1902;-59
2021/01/10 00:04:53;;;;;;;;;;;22.70;37.80;;;;;;1611449;73;1013;-59
2021/01/10 00:06:55;;;;;;;;;;;22.60;37.80;;;;;;1621273;73;1137;-60
2021/01/10 00:08:56;;;;;;;;;;;22.60;37.80;;;;;;1598421;73;730;-58
2021/01/10 00:10:58;;;;;;;;;;;22.60;37.80;;;;;;1619777;72;736;-59
2021/01/10 00:13:01;;;;;;;;;;;22.60;37.80;;;;;;1612527;72;781;-59
2021/01/10 00:15:03;;;;;;;;;;;22.60;37.80;;;;;;1605975;73;707;-59
2021/01/10 00:17:05;;;;;;;;;;;22.70;37.90;;;;;;1608077;73;1142;-60
2021/01/10 00:19:07;;;;;;;;;;;22.70;37.90;;;;;;1606944;72;721;-59
2021/01/10 00:21:09;;;;;;;;;;;22.70;37.90;;;;;;1604117;73;778;-58
2021/01/10 00:23:11;;;;;;;;;;;22.70;37.90;;;;;;1609655;73;2139;-59
2021/01/10 00:25:13;;;;;;;;;;;22.70;38.00;;;;;;1566123;74;713;-59
2021/01/10 00:27:15;;;;;;;;;;;22.70;38.10;;;;;;1561976;74;1172;-59
2021/01/10 00:29:17;;;;;;;;;;;22.80;38.10;;;;;;1609926;73;961;-59
2021/01/10 00:31:19;;;;;;;;;;;22.70;38.20;;;;;;1591843;73;846;-59
2021/01/10 00:33:21;;;;;;;;;;;22.60;38.10;;;;;;1599450;73;754;-58
2021/01/10 00:35:23;;;;;;;;;;;22.70;38.10;;;;;;1605059;73;805;-58
2021/01/10 00:37:25;;;;;;;;;;;22.60;38.10;;;;;;1616130;73;1151;-59
2021/01/10 00:39:27;;;;;;;;;;;22.60;38.10;;;;;;1599325;73;723;-58
2021/01/10 00:41:31;;;;;;;;;;;22.60;38.00;;;;;;1610657;73;755;-59
2021/01/10 00:43:32;;;;;;;;;;;22.60;38.10;;;;;;1591260;73;1982;-60
2021/01/10 00:45:34;;;;;;;;;;;22.70;38.10;;;;;;1596484;73;768;-60
2021/01/10 00:47:36;;;;;;;;;;;22.60;38.10;;;;;;1591114;73;1089;-60
2021/01/10 00:49:38;;;;;;;;;;;22.70;38.20;;;;;;1592197;73;702;-60
2021/01/10 00:51:40;;;;;;;;;;;22.70;38.10;;;;;;1594970;73;798;-60
2021/01/10 00:53:42;;;;;;;;;;;22.80;38.00;;;;;;1605824;73;697;-59
2021/01/10 00:55:44;;;;;;;;;;;22.80;38.10;;;;;;1602039;73;803;-60
2021/01/10 00:57:47;;;;;;;;;;;22.80;38.00;;;;;;1604498;73;1078;-60
2021/01/10 00:59:49;;;;;;;;;;;22.80;38.10;;;;;;1598883;73;774;-60
2021/01/10 01:01:51;;;;;;;;;;;22.70;38.10;;;;;;1604201;73;725;-60
2021/01/10 01:03:53;;;;;;;;;;;22.80;38.10;;;;;;1599269;73;1931;-60
2021/01/10 01:05:54;;;;;;;;;;;22.70;38.10;;;;;;1601724;73;1149;-60
2021/01/10 01:07:56;;;;;;;;;;;22.80;38.10;;;;;;1600938;73;680;-60
2021/01/10 01:09:58;;;;;;;;;;;22.80;38.10;;;;;;1605571;73;698;-59
2021/01/10 01:12:00;;;;;;;;;;;22.70;38.10;;;;;;1593824;73;729;-59
2021/01/10 01:14:02;;;;;;;;;;;22.70;38.10;;;;;;1591623;73;776;-59
2021/01/10 01:16:06;;;;;;;;;;;22.70;38.10;;;;;;1604723;73;1131;-60
2021/01/10 01:18:08;;;;;;;;;;;22.80;38.00;;;;;;1601433;73;721;-60
2021/01/10 01:20:10;;;;;;;;;;;22.70;38.00;;;;;;1605596;73;665;-59
2021/01/10 01:22:12;;;;;;;;;;;22.80;38.10;;;;;;1594447;73;675;-59
2021/01/10 01:24:15;;;;;;;;;;;22.70;38.10;;;;;;1607240;73;1932;-59
2021/01/10 01:26:17;;;;;;;;;;;22.80;38.20;;;;;;1605984;73;1141;-60
2021/01/10 01:28:20;;;;;;;;;;;22.70;38.40;;;;;;1604386;73;741;-60
2021/01/10 01:30:22;;;;;;;;;;;22.70;38.60;;;;;;1609248;73;775;-59
2021/01/10 01:32:24;;;;;;;;;;;22.70;38.80;;;;;;1607023;73;700;-59
2021/01/10 01:34:26;;;;;;;;;;;22.60;38.90;;;;;;1612839;73;669;-61
2021/01/10 01:36:27;;;;;;;;;;;22.70;39.10;;;;;;1602401;73;1211;-61
2021/01/10 01:38:29;;;;;;;;;;;22.70;39.20;;;;;;1600653;73;715;-59
2021/01/10 01:40:31;;;;;;;;;;;22.60;39.10;;;;;;1609438;73;814;-60
2021/01/10 01:42:33;;;;;;;;;;;22.70;39.30;;;;;;1602313;73;666;-59
2021/01/10 01:44:35;;;;;;;;;;;22.70;39.30;;;;;;1606338;73;1927;-58
2021/01/10 01:46:37;;;;;;;;;;;22.70;39.40;;;;;;1597704;73;1133;-58
2021/01/10 01:48:39;;;;;;;;;;;22.70;39.30;;;;;;1601460;73;738;-60
2021/01/10 01:50:41;;;;;;;;;;;22.70;39.30;;;;;;1589614;73;814;-59
2021/01/10 01:52:43;;;;;;;;;;;22.70;39.40;;;;;;1598975;73;717;-59
2021/01/10 01:54:45;;;;;;;;;;;22.70;39.30;;;;;;1606914;73;712;-59
2021/01/10 01:56:47;;;;;;;;;;;22.70;39.40;;;;;;1591848;73;1164;-59
2021/01/10 01:59:08;;;;;;;;;;;22.70;39.50;;;;;;1599037;73;802;-60
2021/01/10 02:01:09;;;;;;;;;;;22.70;39.50;;;;;;1599902;73;744;-60
2021/01/10 02:03:12;;;;;;;;;;;22.70;39.60;;;;;;1602501;73;724;-60
2021/01/10 02:05:14;;;;;;;;;;;22.70;39.60;;;;;;1599491;73;1929;-60
2021/01/10 02:07:27;;;;;;;;;;;22.80;39.60;;;;;;1599298;73;1189;-60
2021/01/10 02:09:29;;;;;;;;;;;22.70;39.60;;;;;;1606919;73;716;-58
2021/01/10 02:11:32;;;;;;;;;;;22.80;39.60;;;;;;1597793;73;783;-60
2021/01/10 02:13:34;;;;;;;;;;;22.80;39.60;;;;;;1598084;73;779;-60
2021/01/10 02:15:36;;;;;;;;;;;22.70;39.70;;;;;;1595195;73;787;-58
2021/01/10 02:17:38;;;;;;;;;;;22.70;39.70;;;;;;1596391;73;1136;-60
2021/01/10 02:19:44;;;;;;;;;;;22.70;39.70;;;;;;1568995;75;674;-59
2021/01/10 02:21:46;;;;;;;;;;;22.70;39.80;;;;;;1616285;73;809;-59
2021/01/10 02:23:48;;;;;;;;;;;22.80;39.90;;;;;;1601553;72;1926;-59
2021/01/10 02:25:50;;;;;;;;;;;22.70;39.90;;;;;;1605193;72;797;-58
2021/01/10 02:27:52;;;;;;;;;;;22.80;39.90;;;;;;1621740;73;806;-59
2021/01/10 02:29:53;;;;;;;;;;;22.80;40.00;;;;;;1609034;72;745;-60
2021/01/10 02:31:55;;;;;;;;;;;22.80;39.90;;;;;;1615494;73;803;-60
2021/01/10 02:33:57;;;;;;;;;;;22.80;40.00;;;;;;1612585;73;728;-60
2021/01/10 02:36:00;;;;;;;;;;;22.70;40.20;;;;;;1610402;72;1183;-61
2021/01/10 02:38:03;;;;;;;;;;;22.70;40.20;;;;;;1607070;73;771;-59
2021/01/10 02:40:07;;;;;;;;;;;22.70;40.20;;;;;;1621455;73;674;-60
2021/01/10 02:42:10;;;;;;;;;;;22.80;40.10;;;;;;1615907;72;989;-60
2021/01/10 02:44:14;;;;;;;;;;;22.80;40.20;;;;;;1608097;73;1911;-59
2021/01/10 02:46:15;;;;;;;;;;;22.80;40.20;;;;;;1611190;72;1128;-60
2021/01/10 02:48:17;;;;;;;;;;;22.70;40.20;;;;;;1608418;72;744;-60
2021/01/10 02:50:19;;;;;;;;;;;22.80;40.00;;;;;;1615102;73;724;-60
2021/01/10 02:52:21;;;;;;;;;;;22.80;40.10;;;;;;1606738;72;789;-60
2021/01/10 02:54:23;;;;;;;;;;;22.90;40.10;;;;;;1610133;72;744;-60
2021/01/10 02:56:25;;;;;;;;;;;22.80;40.10;;;;;;1614607;72;1154;-60
2021/01/10 02:58:28;;;;;;;;;;;22.90;40.10;;;;;;1618049;72;641;-60
2021/01/10 03:00:29;;;;;;;;;;;22.80;40.00;;;;;;1624134;72;705;-60
2021/01/10 03:02:31;;;;;;;;;;;22.90;40.10;;;;;;1606028;72;807;-59
2021/01/10 03:04:33;;;;;;;;;;;22.90;40.10;;;;;;1603551;73;1917;-59
2021/01/10 03:06:35;;;;;;;;;;;22.90;40.20;;;;;;1608873;72;1162;-60
2021/01/10 03:08:37;;;;;;;;;;;22.90;40.20;;;;;;1615145;73;689;-58
2021/01/10 03:10:39;;;;;;;;;;;22.80;40.10;;;;;;1600717;73;727;-59
2021/01/10 03:12:41;;;;;;;;;;;22.80;40.10;;;;;;1616208;73;710;-60
2021/01/10 03:14:44;;;;;;;;;;;22.90;40.20;;;;;;1608901;72;724;-59
2021/01/10 03:16:46;;;;;;;;;;;22.90;40.20;;;;;;1613165;73;1382;-60
2021/01/10 03:18:48;;;;;;;;;;;22.80;40.10;;;;;;1620380;73;760;-60
2021/01/10 03:20:50;;;;;;;;;;;22.80;40.10;;;;;;1610946;72;714;-60
2021/01/10 03:22:52;;;;;;;;;;;22.80;40.20;;;;;;1606486;72;808;-60
2021/01/10 03:24:54;;;;;;;;;;;22.70;40.20;;;;;;1614381;72;1938;-60
2021/01/10 03:26:56;;;;;;;;;;;22.80;40.20;;;;;;1610121;73;1140;-60
2021/01/10 03:28:58;;;;;;;;;;;22.90;40.30;;;;;;1605141;73;703;-60
2021/01/10 03:31:00;;;;;;;;;;;22.90;40.30;;;;;;1605700;72;670;-61
2021/01/10 03:33:02;;;;;;;;;;;22.90;40.20;;;;;;1609707;73;915;-61
2021/01/10 03:35:05;;;;;;;;;;;22.90;40.20;;;;;;1615201;73;733;-61
2021/01/10 03:37:07;;;;;;;;;;;22.90;40.10;;;;;;1599761;72;1187;-60
2021/01/10 03:39:09;;;;;;;;;;;22.90;40.10;;;;;;1626185;73;720;-59
2021/01/10 03:41:11;;;;;;;;;;;22.90;40.20;;;;;;1604800;73;777;-61
2021/01/10 03:43:12;;;;;;;;;;;22.90;40.10;;;;;;1602453;72;695;-60
2021/01/10 03:45:15;;;;;;;;;;;22.90;40.20;;;;;;1607191;73;1941;-60
2021/01/10 03:47:17;;;;;;;;;;;22.80;40.30;;;;;;1609395;72;1171;-60
2021/01/10 03:49:18;;;;;;;;;;;22.80;40.30;;;;;;1604517;72;753;-60
2021/01/10 03:51:22;;;;;;;;;;;22.80;40.20;;;;;;1614709;73;770;-61
2021/01/10 03:53:24;;;;;;;;;;;22.80;40.30;;;;;;1618831;73;1811;-59
2021/01/10 03:55:26;;;;;;;;;;;22.80;40.50;;;;;;1612544;73;727;-59
2021/01/10 03:57:27;;;;;;;;;;;22.70;40.60;;;;;;1617091;72;1130;-60
2021/01/10 03:59:29;;;;;;;;;;;22.70;40.70;;;;;;1615064;72;689;-60
2021/01/10 04:01:31;;;;;;;;;;;22.60;40.80;;;;;;1598940;73;821;-60
2021/01/10 04:03:33;;;;;;;;;;;22.70;41.10;;;;;;1619681;72;771;-60
2021/01/10 04:05:35;;;;;;;;;;;22.60;41.00;;;;;;1603751;72;1936;-60
2021/01/10 04:07:37;;;;;;;;;;;22.60;41.10;;;;;;1620148;72;1132;-59
2021/01/10 04:09:39;;;;;;;;;;;22.60;41.20;;;;;;1604119;72;707;-58
2021/01/10 04:11:41;;;;;;;;;;;22.60;41.10;;;;;;1607265;73;675;-59
2021/01/10 04:13:42;;;;;;;;;;;22.70;41.10;;;;;;1621925;73;696;-60
2021/01/10 04:15:44;;;;;;;;;;;22.60;41.00;;;;;;1611253;72;1067;-60
2021/01/10 04:17:46;;;;;;;;;;;22.60;41.10;;;;;;1614653;73;1128;-60
2021/01/10 04:19:48;;;;;;;;;;;22.60;41.10;;;;;;1605799;73;810;-59
2021/01/10 04:21:50;;;;;;;;;;;22.60;41.20;;;;;;1607117;72;762;-60
2021/01/10 04:23:52;;;;;;;;;;;22.60;41.20;;;;;;1613081;72;786;-61
2021/01/10 04:25:54;;;;;;;;;;;22.70;41.30;;;;;;1600311;72;1926;-60
2021/01/10 04:27:55;;;;;;;;;;;22.60;41.30;;;;;;1606247;73;762;-60
2021/01/10 04:29:57;;;;;;;;;;;22.60;41.20;;;;;;1611483;73;743;-60
2021/01/10 04:31:59;;;;;;;;;;;22.60;41.30;;;;;;1612475;73;807;-60
2021/01/10 04:34:01;;;;;;;;;;;22.60;41.20;;;;;;1609834;72;715;-62
2021/01/10 04:36:03;;;;;;;;;;;22.60;41.40;;;;;;1603262;72;1173;-62
2021/01/10 04:38:05;;;;;;;;;;;22.60;41.40;;;;;;1620576;73;719;-63
2021/01/10 04:40:07;;;;;;;;;;;22.60;41.30;;;;;;1601184;72;722;-62
2021/01/10 04:42:09;;;;;;;;;;;22.60;41.30;;;;;;1616459;73;791;-62
2021/01/10 04:44:14;;;;;;;;;;;22.60;41.30;;;;;;1600865;72;678;-63
2021/01/10 04:46:16;;;;;;;;;;;22.70;41.30;;;;;;1615496;72;1921;-63
2021/01/10 04:48:18;;;;;;;;;;;22.70;41.30;;;;;;1621228;73;1032;-63
2021/01/10 04:50:20;;;;;;;;;;;22.70;41.20;;;;;;1607062;72;732;-63
2021/01/10 04:52:22;;;;;;;;;;;22.60;41.20;;;;;;1601200;72;757;-63
2021/01/10 04:54:24;;;;;;;;;;;22.60;41.10;;;;;;1618237;73;697;-64
2021/01/10 04:56:29;;;;;;;;;;;22.70;41.30;;;;;;1611550;72;1128;-64
2021/01/10 04:58:31;;;;;;;;;;;22.70;41.30;;;;;;1614122;73;789;-62
2021/01/10 05:00:33;;;;;;;;;;;22.70;41.20;;;;;;1610803;72;774;-63
2021/01/10 05:02:35;;;;;;;;;;;22.80;41.00;;;;;;1602432;72;793;-62
2021/01/10 05:04:38;;;;;;;;;;;22.80;41.00;;;;;;1614576;73;1931;-61
2021/01/10 05:06:40;;;;;;;;;;;22.80;41.20;;;;;;1606919;72;1150;-62
2021/01/10 05:08:41;;;;;;;;;;;22.80;41.20;;;;;;1605477;72;715;-61
2021/01/10 05:10:43;;;;;;;;;;;22.80;41.30;;;;;;1580856;74;759;-60
2021/01/10 05:12:45;;;;;;;;;;;22.80;41.20;;;;;;1575485;73;718;-61
2021/01/10 05:14:47;;;;;;;;;;;22.80;41.20;;;;;;1585668;73;755;-60
2021/01/10 05:16:49;;;;;;;;;;;22.90;41.30;;;;;;1584133;73;1135;-61
2021/01/10 05:18:53;;;;;;;;;;;22.80;41.20;;;;;;1581692;74;843;-59
2021/01/10 05:20:55;;;;;;;;;;;22.80;41.20;;;;;;1582359;73;1589;-61
2021/01/10 05:22:58;;;;;;;;;;;22.80;41.30;;;;;;1577474;73;702;-62
2021/01/10 05:25:01;;;;;;;;;;;22.90;41.40;;;;;;1604651;73;1940;-58
2021/01/10 05:27:03;;;;;;;;;;;22.80;41.20;;;;;;1595615;73;1654;-61
2021/01/10 05:29:06;;;;;;;;;;;22.80;41.20;;;;;;1601045;73;801;-61
2021/01/10 05:31:10;;;;;;;;;;;22.80;41.20;;;;;;1607268;73;730;-59
2021/01/10 05:33:12;;;;;;;;;;;22.80;41.20;;;;;;1591924;73;795;-60
2021/01/10 05:35:14;;;;;;;;;;;23.00;41.30;;;;;;1603426;73;793;-62
2021/01/10 05:37:16;;;;;;;;;;;22.80;41.20;;;;;;1610262;73;1183;-61
2021/01/10 05:39:25;;;;;;;;;;;22.90;41.20;;;;;;1606541;73;803;-62
2021/01/10 05:41:27;;;;;;;;;;;23.00;41.00;;;;;;1601388;73;778;-62
2021/01/10 05:43:29;;;;;;;;;;;23.00;40.80;;;;;;1600763;73;741;-62
2021/01/10 05:45:34;;;;;;;;;;;23.00;40.70;;;;;;1596260;73;1930;-60
2021/01/10 05:47:39;;;;;;;;;;;23.00;40.70;;;;;;1606426;73;1112;-62
2021/01/10 05:49:45;;;;;;;;;;;23.00;40.50;;;;;;1593502;73;732;-62
2021/01/10 05:51:47;;;;;;;;;;;23.00;40.50;;;;;;1596489;73;1668;-62
2021/01/10 05:53:49;;;;;;;;;;;23.00;40.90;;;;;;1606258;73;745;-62
2021/01/10 05:55:53;;;;;;;;;;;23.10;41.00;;;;;;1612420;73;709;-61
2021/01/10 05:57:54;;;;;;;;;;;23.00;41.00;;;;;;1593652;73;1718;-61
2021/01/10 05:59:57;;;;;;;;;;;23.00;41.00;;;;;;1602106;73;814;-61
2021/01/10 06:02:00;;;;;;;;;;;23.00;40.90;;;;;;1607119;73;812;-61
2021/01/10 06:04:01;;;;;;;;;;;22.90;41.00;;;;;;1602293;73;764;-62
2021/01/10 06:06:04;;;;;;;;;;;23.00;40.90;;;;;;1607312;73;1928;-62
2021/01/10 06:08:06;;;;;;;;;;;23.10;40.90;;;;;;1605283;73;744;-62
2021/01/10 06:10:08;;;;;;;;;;;23.00;40.70;;;;;;1593980;73;776;-62
2021/01/10 06:12:11;;;;;;;;;;;23.00;40.70;;;;;;1590332;73;733;-63
2021/01/10 06:14:15;;;;;;;;;;;23.00;40.80;;;;;;1594341;73;1817;-61
2021/01/10 06:16:17;;;;;;;;;;;23.10;41.10;;;;;;1592284;73;1795;-61
2021/01/10 06:18:19;;;;;;;;;;;23.00;41.10;;;;;;1597771;73;795;-60
2021/01/10 06:20:24;;;;;;;;;;;23.10;41.10;;;;;;1608051;73;717;-59
2021/01/10 06:22:26;;;;;;;;;;;23.00;41.00;;;;;;1602430;73;781;-61
2021/01/10 06:24:29;;;;;;;;;;;23.10;41.00;;;;;;1614444;73;792;-61
2021/01/10 06:26:32;;;;;;;;;;;23.10;40.90;;;;;;1594243;73;2206;-59
2021/01/10 06:28:34;;;;;;;;;;;23.10;41.10;;;;;;1596138;73;722;-61
2021/01/10 06:30:37;;;;;;;;;;;23.00;40.70;;;;;;1595956;73;711;-61
2021/01/10 06:32:39;;;;;;;;;;;23.00;40.90;;;;;;1600647;73;778;-61
2021/01/10 06:34:41;;;;;;;;;;;23.10;41.10;;;;;;1610159;73;774;-61
2021/01/10 06:36:43;;;;;;;;;;;23.00;41.00;;;;;;1593116;73;1203;-61
2021/01/10 06:38:45;;;;;;;;;;;23.00;41.00;;;;;;1606204;73;677;-62
2021/01/10 06:40:47;;;;;;;;;;;23.00;41.10;;;;;;1595578;73;729;-62
2021/01/10 06:42:49;;;;;;;;;;;23.00;41.30;;;;;;1593102;73;809;-61
2021/01/10 06:44:52;;;;;;;;;;;23.00;41.30;;;;;;1595781;73;722;-61
2021/01/10 06:46:54;;;;;;;;;;;23.00;41.10;;;;;;1597242;73;1936;-61
2021/01/10 06:48:56;;;;;;;;;;;23.00;41.20;;;;;;1597986;73;782;-61
2021/01/10 06:50:58;;;;;;;;;;;23.00;41.30;;;;;;1603885;73;697;-61
2021/01/10 06:53:04;;;;;;;;;;;23.00;41.40;;;;;;1597679;73;796;-59
2021/01/10 06:55:06;;;;;;;;;;;23.00;41.50;;;;;;1599200;73;1745;-60
2021/01/10 06:57:08;;;;;;;;;;;22.90;41.50;;;;;;1595092;73;1117;-60
2021/01/10 06:59:30;;;;;;;;;;;23.00;41.50;;;;;;1609707;73;865;-60
2021/01/10 07:01:52;;;;;;;;;;;23.00;41.50;;;;;;1604782;73;691;-61
2021/01/10 07:03:57;;;;;;;;;;;23.00;41.20;;;;;;1605405;73;724;-61
2021/01/10 07:06:10;;;;;;;;;;;23.00;41.30;;;;;;1594725;72;1895;-62
2021/01/10 07:08:30;;;;;;;;;;;23.00;41.40;;;;;;1598332;73;707;-62
2021/01/10 07:10:32;;;;;;;;;;;22.90;41.40;;;;;;1596137;73;775;-60
2021/01/10 07:12:34;;;;;;;;;;;23.00;41.40;;;;;;1605484;73;808;-60
2021/01/10 07:14:36;;;;;;;;;;;23.00;41.30;;;;;;1603267;73;732;-59
2021/01/10 07:16:38;;;;;;;;;;;23.00;41.60;;;;;;1598515;73;1132;-60
2021/01/10 07:18:49;;;;;;;;;;;23.00;41.40;;;;;;1610585;73;914;-61
2021/01/10 07:20:51;;;;;;;;;;;23.00;41.30;;;;;;1589480;73;687;-62
2021/01/10 07:22:53;;;;;;;;;;;23.00;41.30;;;;;;1600736;73;750;-61
2021/01/10 07:24:55;;;;;;;;;;;23.00;41.30;;;;;;1600096;73;676;-61
2021/01/10 07:26:58;;;;;;;;;;;23.00;41.40;;;;;;1607888;73;1928;-61
2021/01/10 07:28:59;;;;;;;;;;;23.00;41.50;;;;;;1595504;73;917;-63
2021/01/10 07:31:03;;;;;;;;;;;23.00;41.30;;;;;;1606470;73;719;-62
2021/01/10 07:33:06;;;;;;;;;;;23.00;41.30;;;;;;1592863;73;1530;-62
2021/01/10 07:35:08;;;;;;;;;;;23.00;41.30;;;;;;1592657;73;1503;-62
2021/01/10 07:37:11;;;;;;;;;;;23.10;41.40;;;;;;1605228;73;1191;-62
2021/01/10 07:39:13;;;;;;;;;;;23.10;41.40;;;;;;1613500;73;761;-61
2021/01/10 07:41:22;;;;;;;;;;;23.10;41.40;;;;;;1600435;73;733;-61
2021/01/10 07:43:23;;;;;;;;;;;23.10;41.40;;;;;;1607467;73;723;-62
2021/01/10 07:45:27;;;;;;;;;;;23.10;41.10;;;;;;1588758;73;700;-61
2021/01/10 07:47:33;;;;;;;;;;;23.10;41.20;;;;;;1601485;73;1920;-61
2021/01/10 07:49:37;;;;;;;;;;;23.10;41.20;;;;;;1603164;73;709;-61
2021/01/10 07:51:40;;;;;;;;;;;23.10;41.20;;;;;;1605058;73;1758;-62
2021/01/10 07:53:46;;;;;;;;;;;23.10;41.30;;;;;;1603247;73;1369;-62
2021/01/10 07:55:48;;;;;;;;;;;23.10;41.20;;;;;;1605626;73;668;-63
2021/01/10 07:57:54;;;;;;;;;;;23.20;41.10;;;;;;1601465;73;1139;-62
2021/01/10 08:00:13;;;;;;;;;;;23.20;41.10;;;;;;1610390;73;698;-62
2021/01/10 08:02:15;;;;;;;;;;;23.20;41.00;;;;;;1602329;73;820;-62
2021/01/10 08:04:18;;;;;;;;;;;23.30;40.80;;;;;;1600661;73;780;-61
2021/01/10 08:06:20;;;;;;;;;;;23.20;40.90;;;;;;1595358;73;1926;-61
2021/01/10 08:08:23;;;;;;;;;;;23.20;40.80;;;;;;1591674;73;682;-61
2021/01/10 08:10:26;;;;;;;;;;;23.20;40.90;;;;;;1595094;73;695;-61
2021/01/10 08:12:33;;;;;;;;;;;23.20;40.80;;;;;;1607272;73;784;-60
2021/01/10 08:14:35;;;;;;;;;;;23.20;40.80;;;;;;1605882;73;798;-58
2021/01/10 08:16:37;;;;;;;;;;;23.30;40.80;;;;;;1595601;73;1145;-61
2021/01/10 08:18:40;;;;;;;;;;;23.20;40.70;;;;;;1601175;73;630;-61
2021/01/10 08:20:41;;;;;;;;;;;23.20;40.70;;;;;;1598114;73;802;-59
2021/01/10 08:22:43;;;;;;;;;;;23.20;40.70;;;;;;1603239;73;814;-61
2021/01/10 08:24:45;;;;;;;;;;;23.30;40.80;;;;;;1610946;73;757;-61
2021/01/10 08:26:47;;;;;;;;;;;23.20;40.70;;;;;;1596456;73;1949;-61
2021/01/10 08:28:50;;;;;;;;;;;23.20;40.70;;;;;;1611266;73;810;-62
2021/01/10 08:30:52;;;;;;;;;;;23.20;41.00;;;;;;1615170;73;760;-60
2021/01/10 08:32:54;;;;;;;;;;;23.20;41.00;;;;;;1602651;73;728;-58
2021/01/10 08:35:01;;;;;;;;;;;23.20;41.20;;;;;;1606337;73;800;-60
2021/01/10 08:36:59;;;;;;;;;;;23.20;41.10;;;;;;1610088;73;1663;-57
2021/01/10 08:39:02;;;;;;;;;;;23.20;41.00;;;;;;1597937;73;1014;-59
2021/01/10 08:41:04;;;;;;;;;;;23.20;40.70;;;;;;1601194;73;685;-59
2021/01/10 08:43:06;;;;;;;;;;;23.20;40.20;;;;;;1607039;73;740;-59
2021/01/10 08:45:18;;;;;;;;;;;23.20;39.40;;;;;;1603811;73;721;-59
2021/01/10 08:47:20;;;;;;;;;;;23.20;39.20;;;;;;1600283;73;2042;-57
2021/01/10 08:49:26;;;;;;;;;;;23.30;39.00;;;;;;1602783;73;742;-59
2021/01/10 08:51:28;;;;;;;;;;;23.20;38.20;;;;;;1602551;73;625;-60
2021/01/10 08:53:32;;;;;;;;;;;23.20;38.20;;;;;;1602065;73;784;-59
2021/01/10 08:55:34;;;;;;;;;;;23.30;38.40;;;;;;1599184;73;1813;-60
2021/01/10 08:57:36;;;;;;;;;;;23.40;38.30;;;;;;1611246;73;1142;-59
2021/01/10 08:59:38;;;;;;;;;;;23.40;38.20;;;;;;1602271;73;707;-61
2021/01/10 09:01:40;;;;;;;;;;;23.50;38.10;;;;;;1601493;73;691;-60
2021/01/10 09:03:42;;;;;;;;;;;23.60;37.90;;;;;;1600768;73;740;-60
2021/01/10 09:05:49;;;;;;;;;;;23.50;37.80;;;;;;1563767;75;994;-60
2021/01/10 09:07:51;;;;;;;;;;;23.50;37.70;;;;;;1597088;73;1933;-59
2021/01/10 09:10:03;;;;;;;;;;;23.50;37.50;;;;;;1591156;73;865;-59
2021/01/10 09:12:22;;;;;;;;;;;23.50;37.30;;;;;;1604446;73;1421;-59
2021/01/10 09:14:24;;;;;;;;;;;23.40;37.30;;;;;;1595607;73;841;-57
2021/01/10 09:16:26;;;;;;;;;;;23.40;37.30;;;;;;1613843;73;1177;-58
2021/01/10 09:18:28;;;;;;;;;;;23.40;37.00;;;;;;1604239;73;697;-59
2021/01/10 09:20:34;;;;;;;;;;;23.40;37.10;;;;;;1612742;73;757;-59
2021/01/10 09:22:36;;;;;;;;;;;23.40;36.90;;;;;;1614837;73;713;-58
2021/01/10 09:24:39;;;;;;;;;;;23.40;36.40;;;;;;1613331;73;699;-58
2021/01/10 09:26:41;;;;;;;;;;;23.40;36.80;;;;;;1606669;73;1941;-57
2021/01/10 09:28:43;;;;;;;;;;;23.50;36.50;;;;;;1607786;73;793;-59
2021/01/10 09:30:45;;;;;;;;;;;23.40;36.70;;;;;;1609309;73;785;-60
2021/01/10 09:32:47;;;;;;;;;;;23.30;36.40;;;;;;1605726;73;789;-56
2021/01/10 09:34:55;;;;;;;;;;;23.20;36.80;;;;;;1604960;73;792;-60
2021/01/10 09:36:59;;;;;;;;;;;23.30;36.80;;;;;;1608243;72;1212;-59
2021/01/10 09:39:01;;;;;;;;;;;23.30;36.80;;;;;;1602409;73;1285;-59
2021/01/10 09:41:03;;;;;;;;;;;23.20;37.00;;;;;;1614153;73;725;-60
2021/01/10 09:43:05;;;;;;;;;;;23.20;37.30;;;;;;1609524;73;726;-59
2021/01/10 09:45:07;;;;;;;;;;;23.10;37.40;;;;;;1608199;73;795;-59
2021/01/10 09:47:09;;;;;;;;;;;23.20;37.30;;;;;;1606753;73;1927;-61
2021/01/10 09:49:19;;;;;;;;;;;23.20;37.60;;;;;;1598216;73;831;-59
2021/01/10 09:51:21;;;;;;;;;;;23.20;37.60;;;;;;1613310;73;2465;-59
2021/01/10 09:53:26;;;;;;;;;;;23.10;37.80;;;;;;1610611;73;751;-60
2021/01/10 09:55:28;;;;;;;;;;;23.10;37.90;;;;;;1604701;73;714;-59
2021/01/10 09:57:30;;;;;;;;;;;23.10;38.20;;;;;;1578003;75;1198;-58
2021/01/10 09:59:32;;;;;;;;;;;23.20;38.40;;;;;;1612702;72;785;-59
2021/01/10 10:01:36;;;;;;;;;;;23.20;38.20;;;;;;1618510;72;737;-59
2021/01/10 10:03:37;;;;;;;;;;;23.20;38.60;;;;;;1624606;73;723;-59
2021/01/10 10:05:39;;;;;;;;;;;23.30;38.30;;;;;;1623238;72;766;-59
2021/01/10 10:07:42;;;;;;;;;;;23.40;38.00;;;;;;1620816;72;1936;-60
2021/01/10 10:09:47;;;;;;;;;;;23.40;37.80;;;;;;1618555;73;729;-59
2021/01/10 10:11:49;;;;;;;;;;;23.50;37.80;;;;;;1623746;73;764;-59
2021/01/10 10:13:53;;;;;;;;;;;23.50;37.50;;;;;;1621489;73;801;-59
2021/01/10 10:15:55;;;;;;;;;;;23.60;37.20;;;;;;1623267;72;1794;-59
2021/01/10 10:17:59;;;;;;;;;;;23.60;37.00;;;;;;1615811;72;736;-59
2021/01/10 10:20:01;;;;;;;;;;;23.60;36.80;;;;;;1622197;73;1608;-59
2021/01/10 10:22:02;;;;;;;;;;;23.60;36.60;;;;;;1621699;72;754;-59
2021/01/10 10:24:04;;;;;;;;;;;23.60;36.50;;;;;;1575846;73;1149;-59
2021/01/10 10:26:07;;;;;;;;;;;23.60;36.40;;;;;;1581016;74;1101;-59
2021/01/10 10:28:09;;;;;;;;;;;23.70;36.50;;;;;;1610049;73;1933;-59
2021/01/10 10:30:11;;;;;;;;;;;23.60;36.20;;;;;;1606728;73;737;-59
2021/01/10 10:32:13;;;;;;;;;;;23.60;36.20;;;;;;1611300;73;697;-59
2021/01/10 10:34:15;;;;;;;;;;;23.60;36.20;;;;;;1606936;73;630;-59
2021/01/10 10:36:18;;;;;;;;;;;23.60;36.10;;;;;;1611261;73;1148;-59
2021/01/10 10:38:20;;;;;;;;;;;23.70;36.20;;;;;;1606673;73;1853;-59
2021/01/10 10:40:22;;;;;;;;;;;23.60;36.00;;;;;;1610022;73;686;-59
2021/01/10 10:42:24;;;;;;;;;;;23.50;36.00;;;;;;1600010;73;847;-59
2021/01/10 10:44:26;;;;;;;;;;;23.50;36.00;;;;;;1614765;73;720;-59
2021/01/10 10:46:29;;;;;;;;;;;23.60;35.90;;;;;;1603724;73;1152;-59
2021/01/10 10:48:31;;;;;;;;;;;23.50;35.70;;;;;;1604681;73;1925;-59
2021/01/10 10:50:35;;;;;;;;;;;23.50;35.80;;;;;;1603831;73;698;-59
2021/01/10 10:52:36;;;;;;;;;;;23.50;35.70;;;;;;1594417;73;1383;-59
2021/01/10 10:54:38;;;;;;;;;;;23.50;35.70;;;;;;1603172;73;728;-59
2021/01/10 10:56:46;;;;;;;;;;;23.50;35.50;;;;;;1594850;73;1161;-58
2021/01/10 10:58:44;;;;;;;;;;;23.50;35.50;;;;;;1600145;73;1554;-59
2021/01/10 11:00:46;;;;;;;;;;;23.40;35.20;;;;;;1612395;73;740;-60
2021/01/10 11:02:48;;;;;;;;;;;23.40;35.40;;;;;;1602882;73;789;-59
2021/01/10 11:04:50;;;;;;;;;;;23.50;35.70;;;;;;1593136;73;709;-59
2021/01/10 11:06:52;;;;;;;;;;;23.40;35.40;;;;;;1601499;73;1945;-59
2021/01/10 11:08:54;;;;;;;;;;;23.40;35.40;;;;;;1594914;73;734;-59
2021/01/10 11:10:55;;;;;;;;;;;23.40;35.40;;;;;;1600139;73;806;-59
2021/01/10 11:12:57;;;;;;;;;;;23.50;35.50;;;;;;1606582;73;717;-59
2021/01/10 11:15:01;;;;;;;;;;;23.40;35.30;;;;;;1603654;73;1079;-59
2021/01/10 11:17:09;;;;;;;;;;;23.40;35.20;;;;;;1590651;73;1748;-59
2021/01/10 11:19:11;;;;;;;;;;;23.50;35.50;;;;;;1606334;73;817;-59
2021/01/10 11:21:13;;;;;;;;;;;23.40;35.30;;;;;;1600052;73;731;-59
2021/01/10 11:23:15;;;;;;;;;;;23.50;35.40;;;;;;1606101;73;713;-59
2021/01/10 11:25:17;;;;;;;;;;;23.40;35.20;;;;;;1602010;73;714;-59
2021/01/10 11:27:19;;;;;;;;;;;23.40;35.30;;;;;;1605384;73;1930;-59
2021/01/10 11:29:21;;;;;;;;;;;23.40;35.20;;;;;;1604179;73;694;-59
2021/01/10 11:31:25;;;;;;;;;;;23.40;35.20;;;;;;1613169;73;703;-60
2021/01/10 11:33:27;;;;;;;;;;;23.50;35.40;;;;;;1614351;73;700;-61
2021/01/10 11:35:29;;;;;;;;;;;23.40;35.50;;;;;;1591132;73;774;-60
2021/01/10 11:37:31;;;;;;;;;;;23.40;35.70;;;;;;1602117;73;1163;-59
2021/01/10 11:39:33;;;;;;;;;;;23.30;36.00;;;;;;1610641;73;814;-58
2021/01/10 11:41:35;;;;;;;;;;;23.30;36.20;;;;;;1599843;73;708;-58
2021/01/10 11:43:36;;;;;;;;;;;23.30;36.40;;;;;;1600113;73;715;-58
2021/01/10 11:45:39;;;;;;;;;;;23.40;35.70;;;;;;1596010;73;1019;-59
2021/01/10 11:47:41;;;;;;;;;;;23.40;33.80;;;;;;1604001;72;1933;-59
2021/01/10 11:49:42;;;;;;;;;;;23.40;32.40;;;;;;1601469;73;739;-59
2021/01/10 11:51:45;;;;;;;;;;;23.30;25.90;;;;;;1597821;73;745;-59
2021/01/10 11:53:46;;;;;;;;;;;23.10;25.40;;;;;;1596967;73;748;-59
2021/01/10 11:55:48;;;;;;;;;;;23.00;27.00;;;;;;1609223;73;662;-59
2021/01/10 11:57:50;;;;;;;;;;;23.00;27.30;;;;;;1610813;73;1150;-60
2021/01/10 11:59:52;;;;;;;;;;;23.00;27.30;;;;;;1599098;73;624;-59
2021/01/10 12:01:54;;;;;;;;;;;22.90;27.20;;;;;;1595034;73;640;-59
2021/01/10 12:03:56;;;;;;;;;;;22.80;27.20;;;;;;1604836;73;677;-60
2021/01/10 12:05:58;;;;;;;;;;;22.80;27.00;;;;;;1597575;73;1083;-59
2021/01/10 12:08:00;;;;;;;;;;;22.90;27.10;;;;;;1597512;73;1921;-58
2021/01/10 12:10:02;;;;;;;;;;;22.80;26.90;;;;;;1608630;73;646;-60
2021/01/10 12:12:04;;;;;;;;;;;22.70;26.70;;;;;;1597746;73;723;-61